createdAt,value
2022-10-12T00:00:38.304Z,17.23
2022-10-12T00:03:05.855Z,19.70
2022-10-12T00:05:33.422Z,16.00
2022-10-12T00:08:01.011Z,18.37
2022-10-12T00:10:29.905Z,19.70
2022-10-12T00:12:57.482Z,18.60
2022-10-12T00:15:25.097Z,19.80
2022-10-12T00:17:53.922Z,19.13
2022-10-12T00:20:21.854Z,17.20
2022-10-12T00:22:49.543Z,19.30
2022-10-12T00:25:17.251Z,17.10
2022-10-12T00:27:46.837Z,18.00
2022-10-12T00:30:14.710Z,19.70
2022-10-12T00:32:42.739Z,17.53
2022-10-12T00:35:10.519Z,17.20
2022-10-12T00:37:38.475Z,20.63
2022-10-12T00:40:07.568Z,17.70
2022-10-12T00:42:35.547Z,19.00
2022-10-12T00:45:05.037Z,18.67
2022-10-12T00:47:36.272Z,18.30
2022-10-12T00:50:10.695Z,16.63
2022-10-12T00:52:43.321Z,17.17
2022-10-12T00:55:14.340Z,19.03
2022-10-12T00:57:46.724Z,16.73
2022-10-12T01:00:17.254Z,16.73
2022-10-12T01:02:48.410Z,17.13
2022-10-12T01:05:16.347Z,18.23
2022-10-12T01:07:44.335Z,18.23
2022-10-12T01:10:12.630Z,16.60
2022-10-12T01:12:43.026Z,16.13
2022-10-12T01:15:12.346Z,17.33
2022-10-12T01:17:52.241Z,18.40
2022-10-12T01:21:03.239Z,17.87
2022-10-12T01:24:09.223Z,16.87
2022-10-12T01:27:07.429Z,15.67
2022-10-12T01:30:06.154Z,15.83
2022-10-12T01:32:41.411Z,17.63
2022-10-12T01:35:16.909Z,17.93
2022-10-12T01:37:53.621Z,19.63
2022-10-12T01:40:27.915Z,19.00
2022-10-12T01:42:56.507Z,18.67
2022-10-12T01:45:25.921Z,18.17
2022-10-12T01:47:55.786Z,19.10
2022-10-12T01:50:28.920Z,20.40
2022-10-12T01:53:02.457Z,16.87
2022-10-12T01:55:39.819Z,19.53
2022-10-12T01:58:27.295Z,21.87
2022-10-12T02:01:03.518Z,22.00
2022-10-12T02:03:40.691Z,21.50
2022-10-12T02:06:12.836Z,21.20
2022-10-12T02:08:48.542Z,20.73
2022-10-12T02:11:18.287Z,18.00
2022-10-12T02:13:50.126Z,21.00
2022-10-12T02:16:21.748Z,21.30
2022-10-12T02:18:54.251Z,21.03
2022-10-12T02:21:26.717Z,24.33
2022-10-12T02:23:57.114Z,23.30
2022-10-12T02:26:24.934Z,25.37
2022-10-12T02:28:52.666Z,29.40
2022-10-12T02:31:29.539Z,27.50
2022-10-12T02:34:02.125Z,28.97
2022-10-12T02:36:37.573Z,28.83
2022-10-12T02:39:12.416Z,26.93
2022-10-12T02:41:45.060Z,31.37
2022-10-12T02:44:16.439Z,28.27
2022-10-12T02:46:49.127Z,30.37
2022-10-12T02:49:18.479Z,30.23
2022-10-12T02:51:46.565Z,28.40
2022-10-12T02:54:14.504Z,27.07
2022-10-12T02:56:45.876Z,29.40
2022-10-12T02:59:13.887Z,29.87
2022-10-12T03:01:41.839Z,31.97
2022-10-12T03:04:11.205Z,34.30
2022-10-12T03:06:39.067Z,31.90
2022-10-12T03:09:07.361Z,34.43
2022-10-12T03:11:34.961Z,36.17
2022-10-12T03:14:02.529Z,31.87
2022-10-12T03:16:30.175Z,34.80
2022-10-12T03:18:57.726Z,31.17
2022-10-12T03:21:26.701Z,33.10
2022-10-12T03:23:54.366Z,32.70
2022-10-12T03:26:23.037Z,32.90
2022-10-12T03:28:50.932Z,36.17
2022-10-12T03:31:18.593Z,38.17
2022-10-12T03:33:46.273Z,37.40
2022-10-12T03:36:14.258Z,33.90
2022-10-12T03:38:43.169Z,34.80
2022-10-12T03:41:10.887Z,34.93
2022-10-12T03:43:38.467Z,33.03
2022-10-12T03:46:06.566Z,38.53
2022-10-12T03:48:34.311Z,37.83
2022-10-12T03:51:01.903Z,35.97
2022-10-12T03:53:29.442Z,32.83
2022-10-12T03:55:58.508Z,33.17
2022-10-12T03:58:26.553Z,35.83
2022-10-12T04:00:54.723Z,33.00
2022-10-12T04:03:23.053Z,31.77
2022-10-12T04:05:54.558Z,35.07
2022-10-12T04:08:22.367Z,33.47
2022-10-12T04:10:51.232Z,34.07
2022-10-12T04:13:20.880Z,36.07
2022-10-12T04:15:48.448Z,32.63
2022-10-12T04:18:16.025Z,33.90
2022-10-12T04:20:43.651Z,37.40
2022-10-12T04:23:11.361Z,34.13
2022-10-12T04:25:38.991Z,34.30
2022-10-12T04:28:06.652Z,30.10
2022-10-12T04:30:35.622Z,31.90
2022-10-12T04:33:03.215Z,35.37
2022-10-12T04:35:30.893Z,34.20
2022-10-12T04:37:58.457Z,32.20
2022-10-12T04:40:26.098Z,32.63
2022-10-12T04:42:53.661Z,31.27
2022-10-12T04:45:21.213Z,33.50
2022-10-12T04:47:50.216Z,31.23
2022-10-12T04:50:18.007Z,34.03
2022-10-12T04:52:45.595Z,30.53
2022-10-12T04:55:13.161Z,32.70
2022-10-12T04:57:41.414Z,33.80
2022-10-12T05:00:10.724Z,28.37
2022-10-12T05:02:38.289Z,30.83
2022-10-12T05:05:07.773Z,30.50
2022-10-12T05:07:35.531Z,28.47
2022-10-12T05:10:03.252Z,31.37
2022-10-12T05:12:30.831Z,31.03
2022-10-12T05:14:58.382Z,31.10
2022-10-12T05:17:26.013Z,30.90
2022-10-12T05:19:53.575Z,30.83
2022-10-12T05:22:22.551Z,36.10
2022-10-12T05:24:53.832Z,36.03
2022-10-12T05:27:21.946Z,34.40
2022-10-12T05:29:49.515Z,35.87
2022-10-12T05:32:17.200Z,33.97
2022-10-12T05:34:44.809Z,35.83
2022-10-12T05:37:12.738Z,38.00
2022-10-12T05:39:41.751Z,34.50
2022-10-12T05:42:09.702Z,34.90
2022-10-12T05:44:37.273Z,36.43
2022-10-12T05:47:04.927Z,39.07
2022-10-12T05:49:32.521Z,39.37
2022-10-12T05:52:00.103Z,36.63
2022-10-12T05:54:27.765Z,39.50
2022-10-12T05:56:57.179Z,37.10
2022-10-12T05:59:24.720Z,35.77
2022-10-12T06:01:52.873Z,39.23
2022-10-12T06:04:20.674Z,35.63
2022-10-12T06:06:48.315Z,36.77
2022-10-12T06:09:16.123Z,34.33
2022-10-12T06:11:43.700Z,36.00
2022-10-12T06:14:12.703Z,39.80
2022-10-12T06:16:40.333Z,37.17
2022-10-12T06:19:07.916Z,35.07
2022-10-12T06:21:35.453Z,36.77
2022-10-12T06:24:03.121Z,34.40
2022-10-12T06:26:30.706Z,33.37
2022-10-12T06:29:00.532Z,33.97
2022-10-12T06:31:29.935Z,34.20
2022-10-12T06:33:57.612Z,35.83
2022-10-12T06:36:25.146Z,35.13
2022-10-12T06:38:53.111Z,34.80
2022-10-12T06:41:20.782Z,36.93
2022-10-12T06:43:48.361Z,33.80
2022-10-12T06:46:15.891Z,36.70
2022-10-12T06:48:44.863Z,36.17
2022-10-12T06:51:12.578Z,32.47
2022-10-12T06:53:40.427Z,36.03
2022-10-12T06:56:08.788Z,38.20
2022-10-12T06:58:36.356Z,33.87
2022-10-12T07:01:04.916Z,34.87
2022-10-12T07:03:33.822Z,32.43
2022-10-12T07:06:13.272Z,29.87
2022-10-12T07:08:42.113Z,31.60
2022-10-12T07:11:12.502Z,32.87
2022-10-12T07:13:40.489Z,31.67
2022-10-12T07:16:09.017Z,33.30
2022-10-12T07:18:36.814Z,32.90
2022-10-12T07:21:04.738Z,32.17
2022-10-12T07:23:35.486Z,29.47
2022-10-12T07:26:03.062Z,26.70
2022-10-12T07:28:30.696Z,24.67
2022-10-12T07:31:03.161Z,26.37
2022-10-12T07:33:34.980Z,24.17
2022-10-12T07:36:13.844Z,24.87
2022-10-12T07:38:45.190Z,21.20
2022-10-12T07:41:16.017Z,20.47
2022-10-12T07:43:43.870Z,19.20
2022-10-12T07:46:12.397Z,19.47
2022-10-12T07:48:44.510Z,18.97
2022-10-12T07:51:13.806Z,25.43
2022-10-12T07:53:45.108Z,23.37
2022-10-12T07:56:15.856Z,23.17
2022-10-12T07:58:43.578Z,22.47
2022-10-12T08:01:11.327Z,22.47
2022-10-12T08:03:39.781Z,19.27
2022-10-12T08:06:11.585Z,21.87
2022-10-12T08:08:39.316Z,19.60
2022-10-12T08:11:09.136Z,25.23
2022-10-12T08:13:37.641Z,19.63
2022-10-12T08:16:06.869Z,20.60
2022-10-12T08:18:34.512Z,21.77
2022-10-12T08:21:04.927Z,27.87
2022-10-12T08:23:32.574Z,25.50
2022-10-12T08:26:00.171Z,29.10
2022-10-12T08:28:29.634Z,25.70
2022-10-12T08:30:57.629Z,31.70
2022-10-12T08:33:25.671Z,26.30
2022-10-12T08:35:53.237Z,27.17
2022-10-12T08:38:20.781Z,31.30
2022-10-12T08:40:53.538Z,26.87
2022-10-12T08:43:30.010Z,33.17
2022-10-12T08:46:00.951Z,30.67
2022-10-12T08:48:33.942Z,28.17
2022-10-12T08:51:06.358Z,31.47
2022-10-12T08:53:38.954Z,28.97
2022-10-12T08:56:09.097Z,30.60
2022-10-12T08:58:39.354Z,28.80
2022-10-12T09:01:19.458Z,29.07
2022-10-12T09:04:00.023Z,29.13
2022-10-12T09:06:33.623Z,28.07
2022-10-12T09:09:10.984Z,28.73
2022-10-12T09:11:54.468Z,28.10
2022-10-12T09:14:26.991Z,27.80
2022-10-12T09:16:56.791Z,25.50
2022-10-12T09:19:32.831Z,25.20
2022-10-12T09:22:01.314Z,26.63
2022-10-12T09:24:32.482Z,26.83
2022-10-12T09:27:05.026Z,28.23
2022-10-12T09:29:32.819Z,23.90
2022-10-12T09:32:27.368Z,25.30
2022-10-12T09:34:57.284Z,23.10
2022-10-12T09:37:28.581Z,25.77
2022-10-12T09:39:57.003Z,26.20
2022-10-12T09:42:24.593Z,24.33
2022-10-12T09:44:57.521Z,24.77
2022-10-12T09:47:29.622Z,28.07
2022-10-12T09:49:58.794Z,22.60
2022-10-12T09:52:30.862Z,19.63
2022-10-12T09:55:03.667Z,19.47
2022-10-12T09:57:35.178Z,17.90
2022-10-12T10:00:08.515Z,18.57
2022-10-12T10:02:49.290Z,16.00
2022-10-12T10:05:25.991Z,17.37
2022-10-12T10:07:53.808Z,17.00
2022-10-12T10:10:29.443Z,16.10
2022-10-12T10:13:01.209Z,16.97
2022-10-12T10:15:31.506Z,15.03
2022-10-12T10:18:02.960Z,16.90
2022-10-12T10:20:34.101Z,17.00
2022-10-12T10:23:04.581Z,15.73
2022-10-12T10:25:33.169Z,15.80
2022-10-12T10:28:23.210Z,11.50
2022-10-12T10:31:00.170Z,14.03
2022-10-12T10:33:30.350Z,13.90
2022-10-12T10:36:05.100Z,12.90
2022-10-12T10:38:34.915Z,15.10
2022-10-12T10:41:06.945Z,11.90
2022-10-12T10:43:35.780Z,13.70
2022-10-12T10:46:05.305Z,13.90
2022-10-12T10:48:50.968Z,12.95
2022-10-12T10:51:18.691Z,13.57
2022-10-12T10:53:48.564Z,15.13
2022-10-12T10:56:21.142Z,13.87
2022-10-12T10:58:52.121Z,12.23
2022-10-12T11:01:25.106Z,13.02
2022-10-12T11:04:00.515Z,13.83
2022-10-12T11:06:36.272Z,15.23
2022-10-12T11:09:12.156Z,13.23
2022-10-12T11:11:42.832Z,15.03
2022-10-12T11:14:16.322Z,16.07
2022-10-12T11:16:48.229Z,13.40
2022-10-12T11:19:27.302Z,14.10
2022-10-12T11:21:58.066Z,15.27
2022-10-12T11:24:29.906Z,14.48
2022-10-12T11:27:02.824Z,12.90
2022-10-12T11:29:30.430Z,12.90
2022-10-12T11:32:03.246Z,12.97
2022-10-12T11:34:46.725Z,12.23
2022-10-12T11:37:20.784Z,14.60
2022-10-12T11:39:53.581Z,15.13
2022-10-12T11:42:30.115Z,18.40
2022-10-12T11:45:00.327Z,14.93
2022-10-12T11:47:35.717Z,13.70
2022-10-12T11:50:08.452Z,12.13
2022-10-12T11:52:40.790Z,14.20
2022-10-12T11:55:31.353Z,14.70
2022-10-12T11:58:09.055Z,14.55
2022-10-12T12:00:54.395Z,12.73
2022-10-12T12:03:29.876Z,13.80
2022-10-12T12:06:37.346Z,12.35
2022-10-12T12:09:20.145Z,13.93
2022-10-12T12:11:47.710Z,17.27
2022-10-12T12:14:46.902Z,14.90
2022-10-12T12:17:25.889Z,14.27
2022-10-12T12:19:57.952Z,14.37
2022-10-12T12:22:32.612Z,14.35
2022-10-12T12:25:19.086Z,14.00
2022-10-12T12:27:50.813Z,12.15
2022-10-12T12:30:26.892Z,11.85
2022-10-12T12:32:56.791Z,13.18
2022-10-12T12:35:29.058Z,15.90
2022-10-12T12:38:08.608Z,13.40
2022-10-12T12:40:36.938Z,12.40
2022-10-12T12:43:22.252Z,12.90
2022-10-12T12:46:00.613Z,15.68
2022-10-12T12:48:59.995Z,9.98
2022-10-12T12:51:37.272Z,14.85
2022-10-12T12:54:13.393Z,13.70
2022-10-12T12:56:50.714Z,14.48
2022-10-12T12:59:46.522Z,10.95
2022-10-12T13:02:52.472Z,13.00
2022-10-12T13:05:54.591Z,11.00
2022-10-12T13:08:34.061Z,14.50
2022-10-12T13:11:38.731Z,12.65
2022-10-12T13:14:23.836Z,11.10
2022-10-12T13:19:54.955Z,13.60
2022-10-12T13:22:28.605Z,10.55
2022-10-12T13:25:02.245Z,12.05
2022-10-12T13:27:35.659Z,13.30
2022-10-12T13:30:09.605Z,13.50
2022-10-12T13:32:50.880Z,15.80
2022-10-12T13:35:26.739Z,12.13
2022-10-12T13:38:02.503Z,12.15
2022-10-12T13:40:32.703Z,12.40
2022-10-12T13:43:27.991Z,13.20
2022-10-12T13:45:56.377Z,12.77
2022-10-12T13:48:54.053Z,14.98
2022-10-12T13:51:24.046Z,14.15
2022-10-12T13:53:51.754Z,13.43
2022-10-12T13:56:21.206Z,14.63
2022-10-12T13:58:53.481Z,13.63
2022-10-12T14:01:21.254Z,12.43
2022-10-12T14:03:48.885Z,11.98
2022-10-12T14:06:28.545Z,14.60
2022-10-12T14:08:57.921Z,14.35
2022-10-12T14:11:29.495Z,13.57
2022-10-12T14:13:59.360Z,12.23
2022-10-12T14:16:27.148Z,13.57
2022-10-12T14:18:54.777Z,15.48
2022-10-12T14:21:26.663Z,15.87
2022-10-12T14:23:56.185Z,11.68
2022-10-12T14:26:26.715Z,12.70
2022-10-12T14:28:54.763Z,13.10
2022-10-12T14:31:54.309Z,13.55
2022-10-12T14:34:47.481Z,12.30
2022-10-12T14:37:26.326Z,13.75
2022-10-12T14:40:00.206Z,16.55
2022-10-12T14:42:33.976Z,15.93
2022-10-12T14:45:03.034Z,13.98
2022-10-12T14:47:36.156Z,17.05
2022-10-12T14:50:08.376Z,13.93
2022-10-12T14:52:41.355Z,15.40
2022-10-12T14:55:18.642Z,16.42
2022-10-12T14:57:49.440Z,16.17
2022-10-12T15:00:19.462Z,16.50
2022-10-12T15:02:49.673Z,15.88
2022-10-12T15:05:21.220Z,21.13
2022-10-12T15:07:50.278Z,14.20
2022-10-12T15:10:20.868Z,18.35
2022-10-12T15:12:48.895Z,16.52
2022-10-12T15:15:33.354Z,18.10
2022-10-12T15:18:03.027Z,15.70
2022-10-12T15:20:32.428Z,16.75
2022-10-12T15:23:00.526Z,15.13
2022-10-12T15:25:38.593Z,14.13
2022-10-12T15:28:07.007Z,15.20
2022-10-12T15:30:36.066Z,15.57
2022-10-12T15:33:11.026Z,17.33
2022-10-12T15:35:38.681Z,17.25
2022-10-12T15:38:06.542Z,18.37
2022-10-12T15:40:35.471Z,17.42
2022-10-12T15:43:03.077Z,15.27
2022-10-12T15:45:33.757Z,19.60
2022-10-12T15:48:02.225Z,14.27
2022-10-12T15:50:36.944Z,18.90
2022-10-12T15:53:04.932Z,17.83
2022-10-12T15:55:33.581Z,16.92
2022-10-12T15:58:01.528Z,17.40
2022-10-12T16:00:32.730Z,16.30
2022-10-12T16:03:02.406Z,12.95
2022-10-12T16:05:33.686Z,16.80
2022-10-12T16:08:01.864Z,14.70
2022-10-12T16:10:31.815Z,16.07
2022-10-12T16:12:59.770Z,17.73
2022-10-12T16:15:31.111Z,13.00
2022-10-12T16:17:59.613Z,15.10
2022-10-12T16:20:27.926Z,15.13
2022-10-12T16:22:57.235Z,14.55
2022-10-12T16:25:26.134Z,14.80
2022-10-12T16:27:55.711Z,14.35
2022-10-12T16:30:24.293Z,15.73
2022-10-12T16:32:52.597Z,17.93
2022-10-12T16:35:20.490Z,16.30
2022-10-12T16:37:50.958Z,15.15
2022-10-12T16:40:20.225Z,15.50
2022-10-12T16:42:53.069Z,17.33
2022-10-12T16:45:20.955Z,16.35
2022-10-12T16:47:50.446Z,13.73
2022-10-12T16:50:18.871Z,15.00
2022-10-12T16:52:46.600Z,13.68
2022-10-12T16:55:14.415Z,14.23
2022-10-12T16:57:43.897Z,13.27
2022-10-12T17:00:14.781Z,14.13
2022-10-12T17:02:42.853Z,13.55
2022-10-12T17:05:10.449Z,14.00
2022-10-12T17:07:38.037Z,14.13
2022-10-12T17:10:06.659Z,15.20
2022-10-12T17:12:35.297Z,16.80
2022-10-12T17:15:05.678Z,14.27
2022-10-12T17:17:33.296Z,13.67
2022-10-12T17:22:34.733Z,17.10
2022-10-12T17:25:02.371Z,13.97
2022-10-12T17:27:32.305Z,18.08
2022-10-12T17:30:04.043Z,17.20
2022-10-12T17:32:37.465Z,14.88
2022-10-12T17:35:05.679Z,14.30
2022-10-12T17:37:33.460Z,14.98
2022-10-12T17:40:01.222Z,14.60
2022-10-12T17:42:28.841Z,13.25
2022-10-12T17:44:59.048Z,13.70
2022-10-12T17:47:26.641Z,16.00
2022-10-12T17:49:55.639Z,24.23
2022-10-12T17:52:23.278Z,20.30
2022-10-12T17:54:50.886Z,15.37
2022-10-12T17:57:19.112Z,14.02
2022-10-12T17:59:47.220Z,14.77
2022-10-12T18:02:14.879Z,14.60
2022-10-12T18:04:42.580Z,13.23
2022-10-12T18:07:11.589Z,18.07
2022-10-12T18:09:39.480Z,13.10
2022-10-12T18:12:07.467Z,12.93
2022-10-12T18:14:35.269Z,14.47
2022-10-12T18:17:03.648Z,15.87
2022-10-12T18:19:32.457Z,12.73
2022-10-12T18:22:00.025Z,14.23
2022-10-12T18:24:29.125Z,13.47
2022-10-12T18:26:56.802Z,13.23
2022-10-12T18:29:24.387Z,14.43
2022-10-12T18:31:53.056Z,14.37
2022-10-12T18:34:20.696Z,16.23
2022-10-12T18:36:48.316Z,17.27
2022-10-12T18:39:16.435Z,13.53
2022-10-12T18:41:45.951Z,14.70
2022-10-12T18:44:15.027Z,15.88
2022-10-12T18:46:42.690Z,14.60
2022-10-12T18:49:12.056Z,15.23
2022-10-12T18:51:41.677Z,15.87
2022-10-12T18:54:12.734Z,54.70
2022-10-12T18:56:41.764Z,43.73
2022-10-12T18:59:12.722Z,32.90
2022-10-12T19:01:40.386Z,25.33
2022-10-12T19:04:07.974Z,18.63
2022-10-12T19:06:37.893Z,14.37
2022-10-12T19:09:06.542Z,13.90
2022-10-12T19:11:36.235Z,14.03
2022-10-12T19:14:05.940Z,12.93
2022-10-12T19:16:36.069Z,16.50
2022-10-12T19:19:07.131Z,15.47
2022-10-12T19:21:35.287Z,12.57
2022-10-12T19:24:03.768Z,14.47
2022-10-12T19:26:31.499Z,14.20
2022-10-12T19:28:59.818Z,14.40
2022-10-12T19:31:29.730Z,14.10
2022-10-12T19:34:00.204Z,16.07
2022-10-12T19:36:29.074Z,17.07
2022-10-12T19:38:57.229Z,23.93
2022-10-12T19:41:25.451Z,16.53
2022-10-12T19:43:53.959Z,13.03
2022-10-12T19:46:21.837Z,14.87
2022-10-12T19:48:51.285Z,18.80
2022-10-12T19:51:21.873Z,12.27
2022-10-12T19:53:53.611Z,16.33
2022-10-12T19:56:22.056Z,16.30
2022-10-12T19:58:51.167Z,15.17
2022-10-12T20:01:21.248Z,19.17
2022-10-12T20:03:50.614Z,15.53
2022-10-12T20:06:20.014Z,18.27
2022-10-12T20:08:48.051Z,17.77
2022-10-12T20:11:22.546Z,15.70
2022-10-12T20:13:53.036Z,13.60
2022-10-12T20:16:21.854Z,16.57
2022-10-12T20:18:50.415Z,13.20
2022-10-12T20:21:21.280Z,16.47
2022-10-12T20:23:50.145Z,14.90
2022-10-12T20:26:19.827Z,17.73
2022-10-12T20:28:47.844Z,17.90
2022-10-12T20:31:16.354Z,19.97
2022-10-12T20:33:44.287Z,17.63
2022-10-12T20:36:22.644Z,15.63
2022-10-12T20:38:51.663Z,16.27
2022-10-12T20:41:21.512Z,18.00
2022-10-12T20:43:49.279Z,30.97
2022-10-12T20:46:18.591Z,20.70
2022-10-12T20:48:46.995Z,20.67
2022-10-12T20:51:20.203Z,15.13
2022-10-12T20:53:47.824Z,14.97
2022-10-12T20:56:16.841Z,15.77
2022-10-12T20:58:44.491Z,17.47
2022-10-12T21:01:14.593Z,19.60
2022-10-12T21:03:42.639Z,29.40
2022-10-12T21:06:22.044Z,21.37
2022-10-12T21:08:51.058Z,17.00
2022-10-12T21:11:20.370Z,18.83
2022-10-12T21:13:48.555Z,17.23
2022-10-12T21:16:16.478Z,18.87
2022-10-12T21:18:44.440Z,21.10
2022-10-12T21:21:13.685Z,22.00
2022-10-12T21:23:42.169Z,38.80
2022-10-12T21:26:11.241Z,36.50
2022-10-12T21:28:40.452Z,26.33
2022-10-12T21:31:08.660Z,24.63
2022-10-12T21:33:37.690Z,20.27
2022-10-12T21:36:09.493Z,17.77
2022-10-12T21:38:37.466Z,19.50
2022-10-12T21:41:05.376Z,17.37
2022-10-12T21:43:33.215Z,15.93
2022-10-12T21:46:05.199Z,16.67
2022-10-12T21:48:33.436Z,18.07
2022-10-12T21:51:02.195Z,16.60
2022-10-12T21:53:30.314Z,17.37
2022-10-12T21:55:58.004Z,16.90
2022-10-12T21:58:25.736Z,17.47
2022-10-12T22:00:53.770Z,16.43
2022-10-12T22:03:23.632Z,15.67
2022-10-12T22:05:51.258Z,15.93
2022-10-12T22:08:18.837Z,16.13
2022-10-12T22:10:46.401Z,17.20
2022-10-12T22:13:14.060Z,15.37
2022-10-12T22:15:41.650Z,18.57
2022-10-12T22:18:09.210Z,17.57
2022-10-12T22:20:38.702Z,15.20
2022-10-12T22:23:06.614Z,15.97
2022-10-12T22:25:34.197Z,18.23
2022-10-12T22:28:01.906Z,16.23
2022-10-12T22:30:29.556Z,16.30
2022-10-12T22:32:57.137Z,15.20
2022-10-12T22:35:25.038Z,14.23
2022-10-12T22:37:53.906Z,17.33
2022-10-12T22:40:21.497Z,18.80
2022-10-12T22:42:49.209Z,16.53
2022-10-12T22:45:17.283Z,16.87
2022-10-12T22:47:45.185Z,17.33
2022-10-12T22:50:12.784Z,16.87
2022-10-12T22:52:40.326Z,18.90
2022-10-12T22:55:10.441Z,20.97
2022-10-12T22:57:37.990Z,17.17
2022-10-12T23:00:06.390Z,17.53
2022-10-12T23:02:34.373Z,18.43
2022-10-12T23:05:01.921Z,17.83
2022-10-12T23:07:29.566Z,17.47
2022-10-12T23:09:57.535Z,16.40
2022-10-12T23:12:26.502Z,17.37
2022-10-12T23:14:54.346Z,17.50
2022-10-12T23:17:23.234Z,14.13
2022-10-12T23:19:50.808Z,20.33
2022-10-12T23:22:18.676Z,17.03
2022-10-12T23:24:47.094Z,16.90
2022-10-12T23:27:14.932Z,16.73
2022-10-12T23:29:44.051Z,17.37
2022-10-12T23:32:11.699Z,16.50
2022-10-12T23:34:39.424Z,14.93
2022-10-12T23:37:07.246Z,16.80
2022-10-12T23:39:34.939Z,17.77
2022-10-12T23:42:02.664Z,16.13
2022-10-12T23:44:30.240Z,18.10
2022-10-12T23:46:59.184Z,15.97
2022-10-12T23:49:26.767Z,18.20
2022-10-12T23:51:54.407Z,15.10
2022-10-12T23:54:22.401Z,17.27
2022-10-12T23:56:50.020Z,16.03
2022-10-12T23:59:17.622Z,16.77
